Tiempo atmosférico en la estación meteorológica de Coll De Nargó, Lleida (603 m.)



Fecha
DESCASC
Temp. máxima en grados centígrados (hora)
DESCASC
Temp. mínima en grados centígrados (hora)
DESCASC
Temp. media en grados centígrados
DESCASC
Racha de viento máxima en m/sg (hora)
DESCASC
Velocidad máxima media en intervalos de 10 minutos(hora)
DESCASC
Precipitaciones diarias en mm
DESCASC
Precipitaciones de 00:00 a 06:00 en mm
DESCASC
Precipitaciones de 06:00 a 12:00 en mm
DESCASC
Precipitaciones de 12:00 a 18:00 en mm
DESCASC
Precipitaciones de 18:00 a 24:00 en mm
DESCASC
16-06-2019 28.3 (15:10) 8.5 (06:40) 18.4 11.67 (12:50) 8.33 (12:20) 0 0 0 0 0
15-06-2019 25.7 (15:20) 11.7 (06:40) 18.7 13.61 (11:00) 10.28 (10:40) 0 0 0 0 0
14-06-2019 26.1 (14:10) 12.9 (02:40) 19.5 13.61 (14:50) 8.89 (14:40) 0.2 0 0.2 0 0
13-06-2019 26.3 (16:10) 5.6 (00:00) 15.9 11.11 (15:50) 7.5 (19:40) 0 0 0 0 0
12-06-2019 21 (16:40) 4.4 (00:00) 12.7 11.11 (12:10) 8.06 (12:10) 0 0 0 0 0
11-06-2019 17.4 (00:00) 7.6 (00:00) 12.5 12.5 (02:20) 9.72 (02:10) 13 0.4 11.4 0.8 0.4
10-06-2019 24.6 (16:20) 12.2 (00:00) 18.4 14.17 (12:10) 11.94 (12:10) 1 0 1 0 0
09-06-2019 26.9 (17:30) 13.2 (00:00) 20 9.72 (13:50) 7.22 (19:10) 0 0 0 0 0
08-06-2019 27.1 (16:30) 6.2 (00:00) 16.7 12.78 (19:50) 8.61 (22:10) 0 0 0 0 0
07-06-2019 25 (15:50) 11.3 (00:00) 18.2 12.5 (15:00) 7.78 (15:00) 0 0 0 0 0
06-06-2019 23 (15:20) 6.4 (00:00) 14.7 13.61 (18:30) 8.06 (22:30) 0 0 0 0 0
05-06-2019 23.4 (10:20) 11.8 (00:00) 17.6 15 (10:40) 9.72 (10:40) 3.4 0 0 3.4 0
04-06-2019 29.8 (16:20) 10.1 (00:00) 19.9 13.06 (21:20) 8.33 (21:20) 0 0 0 0 0
03-06-2019 30.1 (17:30) 12.8 (00:00) 21.5 11.11 (19:10) 7.78 (21:20) 0 0 0 0 0
02-06-2019 30.5 (15:50) 11 (00:00) 20.8 12.22 (16:00) 9.17 (12:50) 0 0 0 0 0
01-06-2019 29.3 (15:40) 9.9 (00:00) 19.6 10.83 (16:50) 7.22 (16:20) 0 0 0 0 0
31-05-2019 27 (15:40) 7.9 (00:00) 17.5 10.83 (15:10) 7.78 (14:00) 0 0 0 0 0
30-05-2019 24.1 (16:40) 6.2 (00:00) 15.2 14.17 (12:40) 11.11 (12:20) 0 0 0 0 0
29-05-2019 23.7 (14:20) 10.1 (00:00) 16.9 13.61 (20:20) 8.33 (20:20) 0 0 0 0 0
28-05-2019 22.1 (18:30) 9.4 (00:00) 15.8 16.11 (12:10) 13.89 (12:00) 0 0 0 0 0
27-05-2019 22.1 (16:40) 6.6 (00:00) 14.4 16.11 (13:10) 13.61 (12:40) 0 0 0 0 0
26-05-2019 24.3 (13:50) 8.2 (00:00) 16.2 13.33 (17:00) 8.61 (17:30) 0 0 0 0 0
25-05-2019 22.1 (10:30) 9.9 (00:00) 16 15.28 (13:30) 12.78 (13:30) 0.2 0 0 0.2 0
24-05-2019 17.2 (00:00) 11.8 (00:00) 14.5 11.94 (00:20) 6.94 (00:20) 15 4 10.6 0.4 0
23-05-2019 27 (14:40) 5.7 (00:00) 16.3 10 (23:50) 6.67 (12:30) 0 0 0 0 0
22-05-2019 23.7 (15:30) 6.8 (00:00) 15.3 10.83 (16:50) 7.5 (16:10) 0 0 0 0 0

Gráficas

Temp. máximas Temp. mínimas Temp. medias Precipitaciones Rachas de viento máximas Velocidades máximas media en intervalos de 10 minutos

Datos horarios

Fecha y hora oficial Temperatura (ºC) Velocidad del viento (km/h) Dirección del viento Racha (km/h) Dirección de racha Precipitación (mm) Presión (hPa) Tendencia (hPa) Humedad (%)
2019-06-20 23:00:00 -- -- -- -- -- -- -- -- --
2019-06-20 22:00:00 15.1 10 Norte 31 Norte 1 -- -- 94
2019-06-20 21:00:00 18 19 Oeste 44 Sudeste 1.4 -- -- 83
2019-06-20 20:00:00 21.7 24 Sur 41 Sur 0 -- -- 65
2019-06-20 19:00:00 23.4 18 Sur 46 Sudeste 0 -- -- 58
2019-06-20 18:00:00 24.8 24 Sur 48 Sudeste 0 -- -- 50
2019-06-20 17:00:00 27.6 19 Sur 36 Sudeste 0 -- -- 42
2019-06-20 16:00:00 28.9 10 Sur 36 Sur 0 -- -- 41
2019-06-20 15:00:00 28.3 14 Sudoeste 33 Sur 0 -- -- 42
2019-06-20 14:00:00 27.9 13 Sur 33 Sur 0 -- -- 44
2019-06-20 13:00:00 27.5 20 Sur 31 Sudeste 0 -- -- 45
2019-06-20 12:00:00 27.8 5 Sur 17 Sudeste 0 -- -- 46
2019-06-20 11:00:00 25.8 6 Nordeste 9 Nordeste 0 -- -- 54
2019-06-20 10:00:00 23.8 3 Norte 8 Norte 0 -- -- 59
2019-06-20 09:00:00 19.7 6 Norte 9 Norte 0 -- -- 82
2019-06-20 08:00:00 15.6 6 Norte 12 Norte 0 -- -- 97
2019-06-20 07:00:00 14.5 8 Nordeste 10 Nordeste 0 -- -- 97
2019-06-20 06:00:00 15 6 Norte 9 Nordeste 0 -- -- 96
2019-06-20 05:00:00 15.4 4 Nordeste 9 Nordeste 0 -- -- 93
2019-06-20 04:00:00 14.8 6 Norte 18 Norte 1.8 -- -- 93
2019-06-20 03:00:00 18.5 5 Oeste 9 Sudeste 0 -- -- 57
2019-06-20 02:00:00 18.1 6 Norte 9 Norte 0 -- -- 55
2019-06-20 01:00:00 18.3 4 Norte 7 Nordeste 0 -- -- 54
2019-06-20 00:00:00 19.7 4 Nordeste 20 Sur 0 -- -- 51
2019-06-19 23:00:00 20.6 6 Sur 12 Sur 0 -- -- 48
2019-06-19 22:00:00 23.7 3 Este 8 Sur 0 -- -- 36
2019-06-19 21:00:00 25.3 4 Sur 18 Sur 0 -- -- 33
2019-06-19 20:00:00 27.8 16 Sur 29 Sur 0 -- -- 29
2019-06-19 19:00:00 29.2 15 Sur 33 Sur 0 -- -- 27
2019-06-19 18:00:00 30.2 19 Sur 33 Sur 0 -- -- 24
2019-06-19 17:00:00 29.4 17 Sur 34 Sudeste 0 -- -- 27
2019-06-19 16:00:00 29.6 18 Sur 37 Sur 0 -- -- 26
2019-06-19 15:00:00 29.8 27 Sur 35 Sur 0 -- -- 25
2019-06-19 14:00:00 30.1 22 Sur 35 Sur 0 -- -- 23
2019-06-19 13:00:00 28.9 27 Sur 37 Sur 0 -- -- 26
2019-06-19 12:00:00 27.5 29 Sur 34 Sur 0 -- -- 30
2019-06-19 11:00:00 27.4 3 Nordeste 9 Norte 0 -- -- 32
2019-06-19 10:00:00 22.8 5 Norte 11 Nordeste 0 -- -- 37
2019-06-19 09:00:00 20 5 Nordeste 9 Nordeste 0 -- -- 45
2019-06-19 08:00:00 15.9 5 Norte 8 Norte 0 -- -- 61
2019-06-19 07:00:00 11.2 5 Norte 8 Norte 0 -- -- 68
2019-06-19 06:00:00 10.8 5 Nordeste 8 Norte 0 -- -- 76
2019-06-19 05:00:00 11.8 6 Norte 7 Nordeste 0 -- -- 69
2019-06-19 04:00:00 13.2 4 Norte 8 Nordeste 0 -- -- 61
2019-06-19 03:00:00 14.5 4 Nordeste 6 Nordeste 0 -- -- 61
2019-06-19 02:00:00 16.1 2 Sur 7 Nordeste 0 -- -- 55
2019-06-19 01:00:00 18.1 0 Calma 9 Sur 0 -- -- 47
2019-06-19 00:00:00 19.5 8 Sur 16 Sur 0 -- -- 45
2019-06-18 23:00:00 21.5 9 Sur 30 Sudeste 0 -- -- 39
2019-06-18 22:00:00 23.3 18 Sur 42 Sudeste 0 -- -- 32
2019-06-18 21:00:00 24.2 8 Sur 29 Sudoeste 0 -- -- 31
2019-06-18 20:00:00 26.7 18 Sudoeste 49 Sudoeste 0 -- -- 29
2019-06-18 19:00:00 -- -- -- -- -- -- -- -- --
2019-06-18 18:00:00 30.5 20 Sur 41 Sudoeste 0 -- -- 26
2019-06-18 17:00:00 31.7 22 Sur 40 Sur 0 -- -- 24
2019-06-18 16:00:00 32.9 20 Sur 36 Sudeste 0 -- -- 24
2019-06-18 15:00:00 31.6 29 Sur 36 Sur 0 -- -- 25
2019-06-18 14:00:00 30.8 26 Sur 33 Sur 0 -- -- 25
2019-06-18 13:00:00 29.3 24 Sur 31 Sudeste 0 -- -- 31
2019-06-18 12:00:00 28.2 4 Nordeste 10 Nordeste 0 -- -- 37
2019-06-18 11:00:00 24 2 Norte 11 Este 0 -- -- 47
2019-06-18 10:00:00 24.9 5 Nordeste 11 Norte 0 -- -- 46
2019-06-18 09:00:00 21.6 3 Nordeste 8 Nordeste 0 -- -- 53
2019-06-18 08:00:00 17.1 0 Calma 7 Norte 0 -- -- 66
2019-06-18 07:00:00 15.3 4 Norte 6 Norte 0 -- -- 69
2019-06-18 06:00:00 14.8 5 Norte 8 Norte 0 -- -- 68
2019-06-18 05:00:00 14.1 4 Norte 8 Nordeste 0 -- -- 74
2019-06-18 04:00:00 14.7 4 Norte 8 Nordeste 0 -- -- 70
2019-06-18 03:00:00 14.9 6 Nordeste 11 Nordeste 0 -- -- 71
2019-06-18 02:00:00 17 3 Nordeste 7 Nordeste 0 -- -- 66
2019-06-18 01:00:00 18.1 4 Nordeste 17 Sur 0 -- -- 61
2019-06-18 00:00:00 20.8 11 Sur 28 Sur 0 -- -- 52
2019-06-17 23:00:00 22 20 Sur 37 Sur 0 -- -- 50
2019-06-17 22:00:00 23.3 20 Sudeste 34 Sudeste 0 -- -- 44
2019-06-17 21:00:00 25.1 17 Sur 42 Sur 0 -- -- 43
2019-06-17 20:00:00 26.6 21 Sur 39 Sudeste 0 -- -- 39
2019-06-17 19:00:00 30 14 Sur 29 Sur 0 -- -- 22
2019-06-17 18:00:00 31.2 17 Sur 28 Sur 0 -- -- 22
2019-06-17 17:00:00 31.7 20 Sur 30 Sur 0 -- -- 23
2019-06-17 16:00:00 31.5 20 Sur 33 Sur 0 -- -- 24
2019-06-17 15:00:00 31.3 23 Sur 30 Sur 0 -- -- 26
2019-06-17 14:00:00 30.6 20 Sur 27 Sur 0 -- -- 27
2019-06-17 13:00:00 29.5 16 Sudeste 23 Sudeste 0 -- -- 29
2019-06-17 12:00:00 27.4 6 Sudeste 12 Sudeste 0 -- -- 33
2019-06-17 11:00:00 25.5 4 Nordeste 11 Nordeste 0 -- -- 40
2019-06-17 10:00:00 23.9 6 Nordeste 11 Nordeste 0 -- -- 46
2019-06-17 09:00:00 20.2 6 Norte 12 Nordeste 0 -- -- 53
2019-06-17 08:00:00 17.1 4 Nordeste 6 Norte 0 -- -- 65
2019-06-17 07:00:00 11.6 3 Norte 6 Norte 0 -- -- 83
2019-06-17 06:00:00 11.5 4 Norte 10 Norte 0 -- -- 84
2019-06-17 05:00:00 11.3 5 Norte 7 Norte 0 -- -- 87
2019-06-17 04:00:00 12.2 6 Norte 10 Norte 0 -- -- 82
2019-06-17 03:00:00 13.6 6 Norte 8 Norte 0 -- -- 75
2019-06-17 02:00:00 14.8 4 Norte 9 Nordeste 0 -- -- 67
2019-06-17 01:00:00 16 4 Nordeste 18 Sur 0 -- -- 62
2019-06-17 00:00:00 18.8 14 Sur 22 Sur 0 -- -- 51
2019-06-16 23:00:00 19.7 14 Sur 23 Sur 0 -- -- 48
2019-06-16 22:00:00 21.3 13 Sur 20 Sur 0 -- -- 44
2019-06-16 21:00:00 23.1 9 Sur 23 Sur 0 -- -- 40
2019-06-16 20:00:00 25 18 Sur 29 Sudeste 0 -- -- 34
2019-06-16 19:00:00 26.2 19 Sur 33 Sur 0 -- -- 34
2019-06-16 18:00:00 26.6 21 Sudeste 33 Sur 0 -- -- 37
2019-06-16 17:00:00 27.9 23 Sur 35 Sur 0 -- -- 36
2019-06-16 16:00:00 28 25 Sur 36 Sudeste 0 -- -- 37
2019-06-16 15:00:00 28.1 21 Sudeste 32 Sur 0 -- -- 34
2019-06-16 14:00:00 27.3 21 Sudeste 35 Sur 0 -- -- 38
2019-06-16 13:00:00 25.1 27 Sudeste 42 Sur 0 -- -- 46
2019-06-16 12:00:00 23.4 26 Sudeste 35 Sur 0 -- -- 49
2019-06-16 11:00:00 22.8 4 Nordeste 10 Norte 0 -- -- 45
2019-06-16 10:00:00 20 4 Norte 10 Norte 0 -- -- 49
2019-06-16 09:00:00 18.3 6 Nordeste 11 Nordeste 0 -- -- 55
2019-06-16 08:00:00 15 3 Norte 6 Norte 0 -- -- 65
2019-06-16 07:00:00 8.7 4 Norte 6 Norte 0 -- -- 96
2019-06-16 06:00:00 8.9 4 Norte 6 Norte 0 -- -- 93
2019-06-16 05:00:00 10.1 3 Norte 6 Norte 0 -- -- 86
2019-06-16 04:00:00 10.5 4 Nordeste 7 Nordeste 0 -- -- 81
2019-06-16 03:00:00 11.7 4 Nordeste 12 Sudeste 0 -- -- 73
2019-06-16 02:00:00 13.6 4 Este 30 Sudeste 0 -- -- 69
2019-06-16 01:00:00 15.2 13 Sudeste 28 Sur 0 -- -- 69
2019-06-16 00:00:00 15 3 Sur 9 Sur 0 -- -- 55
2019-06-15 23:00:00 17 3 Nordeste 17 Sur 0 -- -- 46
2019-06-15 22:00:00 19.2 12 Sur 26 Sur 0 -- -- 39
2019-06-15 21:00:00 20.8 20 Sur 28 Sur 0 -- -- 35
2019-06-15 20:00:00 22 17 Sur 36 Sur 0 -- -- 34
2019-06-15 19:00:00 23.6 19 Sur 44 Sudeste 0 -- -- 32
2019-06-15 18:00:00 25.3 20 Sudeste 37 Sudeste 0 -- -- 33
2019-06-15 17:00:00 24.4 24 Sur 37 Sur 0 -- -- 38
2019-06-15 16:00:00 25.6 26 Sudeste 40 Sudeste 0 -- -- 39
2019-06-15 15:00:00 25.2 27 Sur 39 Sur 0 -- -- 43
2019-06-15 14:00:00 24.5 28 Sur 44 Sur 0 -- -- 45
2019-06-15 13:00:00 22.9 33 Sur 43 Sur 0 -- -- 50
2019-06-15 12:00:00 21.5 35 Sur 45 Sur 0 -- -- 59
2019-06-15 11:00:00 20.1 37 Sur 49 Sur 0 -- -- 67
2019-06-15 10:00:00 19.4 19 Sudeste 32 Sur 0 -- -- 69
2019-06-15 09:00:00 18.1 3 Norte 6 Norte 0 -- -- 75
2019-06-15 08:00:00 14.3 3 Norte 5 Norte 0 -- -- 87
2019-06-15 07:00:00 11.7 3 Norte 7 Norte 0 -- -- 96
2019-06-15 06:00:00 12.1 4 Norte 7 Nordeste 0 -- -- 95
2019-06-15 05:00:00 12.4 0 Calma 6 Norte 0 -- -- 94
2019-06-15 04:00:00 13.5 3 Nordeste 7 Nordeste 0 -- -- 90
2019-06-15 03:00:00 14.6 0 Calma 6 Norte 0 -- -- 84
2019-06-15 02:00:00 15 3 Norte 10 Norte 0 -- -- 83
2019-06-15 01:00:00 15.9 4 Norte 10 Sur 0 -- -- 75
2019-06-15 00:00:00 16.5 3 Nordeste 7 Nordeste 0 -- -- 72
2019-06-14 23:00:00 18.8 4 Sur 19 Sur 0 -- -- 64
2019-06-14 22:00:00 20.2 18 Sur 24 Sudeste 0 -- -- 59
2019-06-14 21:00:00 20.7 19 Sur 27 Sur 0 -- -- 59
2019-06-14 20:00:00 22.8 15 Sur 24 Sudeste 0 -- -- 52
2019-06-14 19:00:00 24.4 17 Sur 28 Sudeste 0 -- -- 47
2019-06-14 18:00:00 23.2 19 Sur 28 Sur 0 -- -- 53
2019-06-14 17:00:00 23.9 12 Sur 32 Sudeste 0 -- -- 50
2019-06-14 16:00:00 22.9 24 Sur 44 Sur 0 -- -- 48
2019-06-14 15:00:00 25 31 Sudeste 49 Sudeste 0 -- -- 46
2019-06-14 14:00:00 25.6 23 Sur 31 Sur 0 -- -- 47
2019-06-14 13:00:00 22.3 10 Norte 18 Norte 0 -- -- 54
2019-06-14 12:00:00 25.6 5 Nordeste 9 Nordeste 0 -- -- 47
2019-06-14 11:00:00 21.8 3 Norte 16 Nordeste 0 -- -- 51
2019-06-14 10:00:00 18.4 10 Nordeste 18 Norte 0 -- -- 67
2019-06-14 09:00:00 14.9 6 Sudoeste 18 Norte 0 -- -- 81
2019-06-14 08:00:00 13.8 7 Norte 14 Norte 0.2 -- -- 83
2019-06-14 07:00:00 14.9 8 Noroeste 21 Oeste 0 -- -- 70
2019-06-14 06:00:00 14.6 8 Este 21 Norte 0 -- -- 67
2019-06-14 05:00:00 14.2 9 Nordeste 19 Nordeste 0 -- -- 70
2019-06-14 04:00:00 13.6 6 Nordeste 12 Nordeste 0 -- -- 75
2019-06-14 03:00:00 13.1 6 Norte 9 Norte 0 -- -- 75
2019-06-14 02:00:00 13.6 0 Calma 8 Nordeste 0 -- -- 71
2019-06-14 01:00:00 14.6 2 Oeste 10 Nordeste 0 -- -- 66
2019-06-14 00:00:00 16.8 0 Calma 27 Sur 0 -- -- 55
2019-06-13 23:00:00 18.2 22 Sur 38 Sur 0 -- -- 51
2019-06-13 22:00:00 18.8 26 Sur 36 Sur 0 -- -- 49
2019-06-13 21:00:00 20.7 25 Sur 33 Sur 0 -- -- 43
2019-06-13 20:00:00 21.8 23 Sudeste 37 Sudeste 0 -- -- 41
2019-06-13 19:00:00 22.5 24 Sudeste 34 Sur 0 -- -- 37
2019-06-13 18:00:00 23.7 13 Sudeste 39 Sur 0 -- -- 32
2019-06-13 17:00:00 25.4 13 Sur 35 Sudeste 0 -- -- 31
2019-06-13 16:00:00 25.7 13 Sur 40 Sur 0 -- -- 30
2019-06-13 15:00:00 24.9 18 Sur 38 Sur 0 -- -- 32
2019-06-13 14:00:00 23.8 15 Sudoeste 32 Sur 0 -- -- 33
2019-06-13 13:00:00 23.7 17 Sur 32 Sur 0 -- -- 36
2019-06-13 12:00:00 23.2 6 Nordeste 11 Nordeste 0 -- -- 38
2019-06-13 11:00:00 19.4 6 Nordeste 12 Nordeste 0 -- -- 46
2019-06-13 10:00:00 17.4 5 Nordeste 10 Nordeste 0 -- -- 48
2019-06-13 09:00:00 15.1 5 Nordeste 14 Norte 0 -- -- 57
2019-06-13 08:00:00 11.5 6 Norte 11 Norte 0 -- -- 68
2019-06-13 07:00:00 5.8 4 Norte 6 Norte 0 -- -- 96
2019-06-13 06:00:00 6.4 2 Norte 5 Nordeste 0 -- -- 91
2019-06-13 05:00:00 6.1 4 Norte 7 Norte 0 -- -- 94
2019-06-13 04:00:00 6.8 4 Norte 9 Norte 0 -- -- 90
2019-06-13 03:00:00 7.2 7 Norte 9 Nordeste 0 -- -- 90
2019-06-13 02:00:00 8 5 Norte 6 Nordeste 0 -- -- 86
2019-06-13 01:00:00 9.6 0 Calma 6 Norte 0 -- -- 77
2019-06-13 00:00:00 10.3 4 Nordeste 12 Sur 0 -- -- 70
2019-06-12 23:00:00 12.4 3 Sudeste 10 Sur 0 -- -- 60
2019-06-12 22:00:00 13.9 9 Sur 19 Sur 0 -- -- 57
2019-06-12 21:00:00 15.1 15 Sur 21 Sur 0 -- -- 51
2019-06-12 20:00:00 18.2 14 Sur 26 Sur 0 -- -- 44
2019-06-12 19:00:00 19.8 18 Sur 27 Sur 0 -- -- 39
2019-06-12 18:00:00 20.5 21 Sur 33 Sur 0 -- -- 40
2019-06-12 17:00:00 19.6 19 Sur 33 Sur 0 -- -- 43
2019-06-12 16:00:00 19 22 Sudeste 33 Sur 0 -- -- 48
2019-06-12 15:00:00 18.8 26 Sudeste 35 Sudeste 0 -- -- 49
2019-06-12 14:00:00 17.8 22 Sudeste 34 Sur 0 -- -- 57
2019-06-12 13:00:00 17.9 24 Sur 40 Sur 0 -- -- 55
2019-06-12 12:00:00 16.4 26 Sudeste 36 Sur 0 -- -- 60
2019-06-12 11:00:00 15.8 10 Sur 23 Sur 0 -- -- 61
2019-06-12 10:00:00 14.9 4 Nordeste 15 Nordeste 0 -- -- 58
2019-06-12 09:00:00 12.5 8 Nordeste 17 Nordeste 0 -- -- 70
2019-06-12 08:00:00 9.3 10 Nordeste 19 Nordeste 0 -- -- 89
2019-06-12 07:00:00 4.7 10 Norte 18 Norte 0 -- -- 100
2019-06-12 06:00:00 4.6 4 Norte 13 Norte 0 -- -- 100
2019-06-12 05:00:00 4.7 6 Norte 9 Noroeste 0 -- -- 100
2019-06-12 04:00:00 5.3 3 Norte 4 Norte 0 -- -- 99
2019-06-12 03:00:00 5.4 2 Norte 8 Nordeste 0 -- -- 99
2019-06-12 02:00:00 6 4 Norte 8 Nordeste 0 -- -- 98
2019-06-12 01:00:00 6.4 4 Nordeste 9 Norte 0 -- -- 98
2019-06-12 00:00:00 7.6 6 Nordeste 9 Norte 0 -- -- 95
2019-06-11 23:00:00 8.9 3 Noroeste 19 Norte 0 -- -- 92
2019-06-11 22:00:00 9.5 8 Nordeste 14 Noroeste 0.2 -- -- 91
2019-06-11 21:00:00 10 5 Norte 22 Norte 0 -- -- 82
2019-06-11 20:00:00 11.7 17 Norte 33 Nordeste 0 -- -- 78
2019-06-11 19:00:00 11.2 23 Nordeste 35 Norte 0.2 -- -- 88
2019-06-11 18:00:00 13.5 17 Sur 28 Sur 0 -- -- 84
2019-06-11 17:00:00 12.5 25 Sur 30 Sur 0 -- -- 89
2019-06-11 16:00:00 12.2 21 Sur 27 Sur 0 -- -- 91
2019-06-11 15:00:00 12.5 21 Sur 27 Sur 0.2 -- -- 92
2019-06-11 14:00:00 11.5 8 Sur 16 Sur 0.2 -- -- 94
2019-06-11 13:00:00 11.2 3 Nordeste 18 Sur 0.4 -- -- 96
2019-06-11 12:00:00 10.5 5 Sur 11 Sur 1.2 -- -- 96
2019-06-11 11:00:00 10.6 3 Norte 4 Sur 1.8 -- -- 95
2019-06-11 10:00:00 10 0 Calma 4 Noroeste 1.8 -- -- 96
2019-06-11 09:00:00 9.7 3 Norte 7 Norte 1 -- -- 96
2019-06-11 08:00:00 9.6 0 Calma 5 Nordeste 3.4 -- -- 96
2019-06-11 07:00:00 9.6 4 Nordeste 7 Nordeste 2.2 -- -- 93
2019-06-11 06:00:00 9.9 4 Norte 15 Norte 0.2 -- -- 89
2019-06-11 05:00:00 11.2 0 Calma 18 Nordeste 0.2 -- -- 73
2019-06-11 04:00:00 13.8 11 Noroeste 33 Sudeste 0 -- -- 50
2019-06-11 03:00:00 13.9 31 Sur 45 Sur 0 -- -- 55
2019-06-11 02:00:00 14.6 31 Sur 44 Sur 0 -- -- 51
2019-06-11 01:00:00 16 24 Sur 40 Sur 0 -- -- 45
2019-06-11 00:00:00 17.4 21 Sudeste 35 Sur 0 -- -- 38
2019-06-10 23:00:00 18.1 17 Sur 24 Sudeste 0 -- -- 33
2019-06-10 22:00:00 19.5 13 Sur 23 Sur 0 -- -- 26
2019-06-10 21:00:00 20.5 10 Sur 33 Sur 0 -- -- 35
2019-06-10 20:00:00 22.1 23 Sur 41 Sur 0 -- -- 33
2019-06-10 19:00:00 24.3 13 Sur 36 Sur 0 -- -- 32
2019-06-10 18:00:00 22.5 28 Sudeste 42 Sur 0 -- -- 44
2019-06-10 17:00:00 22.2 19 Sur 39 Sur 0 -- -- 46
2019-06-10 16:00:00 22.3 26 Sur 44 Sudeste 0 -- -- 48
2019-06-10 15:00:00 22.4 29 Sur 41 Sur 0 -- -- 51
2019-06-10 14:00:00 22.3 33 Sur 46 Sur 0 -- -- 53
2019-06-10 13:00:00 21 34 Sur 51 Sur 0 -- -- 58
2019-06-10 12:00:00 18.4 40 Sur 49 Sur 0 -- -- 68
2019-06-10 11:00:00 16.9 30 Sur 44 Sudeste 0 -- -- 74
2019-06-10 10:00:00 13.7 40 Sur 49 Sur 1 -- -- 85
2019-06-10 09:00:00 13.5 41 Sur 51 Sur 0 -- -- 78
2019-06-10 08:00:00 12.5 22 Sur 46 Sur 0 -- -- 79
2019-06-10 07:00:00 12.9 33 Sur 45 Sudeste 0 -- -- 77
2019-06-10 06:00:00 12.7 8 Nordeste 11 Nordeste 0 -- -- 80
2019-06-10 05:00:00 14 5 Norte 11 Nordeste 0 -- -- 74
2019-06-10 04:00:00 14 4 Nordeste 8 Nordeste 0 -- -- 70
2019-06-10 03:00:00 14.6 5 Nordeste 9 Nordeste 0 -- -- 65
2019-06-10 02:00:00 15.5 4 Nordeste 7 Nordeste 0 -- -- 63
2019-06-10 01:00:00 17.8 2 Oeste 15 Sur 0 -- -- 55
2019-06-10 00:00:00 18.9 14 Sur 35 Sur 0 -- -- 52
2019-06-09 23:00:00 20.1 22 Sur 31 Sur 0 -- -- 46
2019-06-09 22:00:00 20.3 10 Sur 19 Sur 0 -- -- 45
2019-06-09 21:00:00 21.9 15 Sur 24 Sur 0 -- -- 42
2019-06-09 20:00:00 23.9 22 Sur 34 Sudeste 0 -- -- 36
2019-06-09 19:00:00 24.6 25 Sur 34 Sur 0 -- -- 36
2019-06-09 18:00:00 25.7 20 Sur 25 Sur 0 -- -- 36
2019-06-09 17:00:00 26.4 8 Sur 23 Sur 0 -- -- 34
2019-06-09 16:00:00 26 17 Sur 27 Sur 0 -- -- 34
2019-06-09 15:00:00 25.6 18 Sur 27 Sur 0 -- -- 35
2019-06-09 14:00:00 23.8 19 Sur 35 Sur 0 -- -- 36
2019-06-09 13:00:00 24.3 15 Sudeste 28 Sudeste 0 -- -- 35
2019-06-09 12:00:00 24.5 18 Sur 29 Sudeste 0 -- -- 36
2019-06-09 11:00:00 24.1 4 Nordeste 12 Nordeste 0 -- -- 43
2019-06-09 10:00:00 17.9 4 Norte 10 Norte 0 -- -- 62
2019-06-09 09:00:00 16.3 6 Nordeste 14 Norte 0 -- -- 65
2019-06-09 08:00:00 15 7 Norte 19 Norte 0 -- -- 70
2019-06-09 07:00:00 14.1 8 Nordeste 12 Nordeste 0 -- -- 69
2019-06-09 06:00:00 13.4 5 Norte 11 Norte 0 -- -- 72
2019-06-09 05:00:00 13.2 5 Nordeste 8 Nordeste 0 -- -- 75
2019-06-09 04:00:00 13.6 7 Norte 10 Norte 0 -- -- 69
2019-06-09 03:00:00 14.2 5 Norte 9 Norte 0 -- -- 65
2019-06-09 02:00:00 14.3 6 Nordeste 10 Nordeste 0 -- -- 64
2019-06-09 01:00:00 15 4 Nordeste 9 Nordeste 0 -- -- 61
2019-06-09 00:00:00 16.4 2 Sudoeste 28 Sur 0 -- -- 52
2019-06-08 23:00:00 17.3 21 Sur 43 Sur 0 -- -- 53
2019-06-08 22:00:00 18.9 30 Sur 42 Sur 0 -- -- 49
2019-06-08 21:00:00 19.8 21 Sur 43 Sur 0 -- -- 50
2019-06-08 20:00:00 22 24 Sudoeste 46 Sur 0 -- -- 47
2019-06-08 19:00:00 23.2 24 Sur 44 Sur 0 -- -- 44
2019-06-08 18:00:00 26.1 9 Sur 33 Sur 0 -- -- 30
2019-06-08 17:00:00 26.5 16 Sur 38 Sur 0 -- -- 28
2019-06-08 16:00:00 26.9 24 Sur 44 Sudeste 0 -- -- 27
2019-06-08 15:00:00 26.5 27 Sur 41 Sur 0 -- -- 29
2019-06-08 14:00:00 26.1 26 Sur 34 Sur 0 -- -- 29
2019-06-08 13:00:00 24.9 6 Nordeste 16 Norte 0 -- -- 29
2019-06-08 12:00:00 23 8 Norte 13 Norte 0 -- -- 31
2019-06-08 11:00:00 20.7 8 Nordeste 14 Nordeste 0 -- -- 40
2019-06-08 10:00:00 18.2 5 Nordeste 14 Nordeste 0 -- -- 44
2019-06-08 09:00:00 15.7 6 Nordeste 10 Nordeste 0 -- -- 49
2019-06-08 08:00:00 12.8 3 Norte 6 Norte 0 -- -- 64
2019-06-08 07:00:00 6.6 3 Nordeste 7 Norte 0 -- -- 81
2019-06-08 06:00:00 7.1 3 Norte 7 Norte 0 -- -- 75
2019-06-08 05:00:00 7.2 5 Norte 9 Nordeste 0 -- -- 72
2019-06-08 04:00:00 8 4 Nordeste 6 Nordeste 0 -- -- 71
2019-06-08 03:00:00 9.6 3 Norte 9 Nordeste 0 -- -- 61
2019-06-08 02:00:00 10.1 3 Norte 7 Norte 0 -- -- 64
2019-06-08 01:00:00 10.8 5 Norte 9 Norte 0 -- -- 64
2019-06-08 00:00:00 12.7 3 Nordeste 6 Sur 0 -- -- 55
2019-06-07 23:00:00 15.4 4 Sudoeste 16 Sur 0 -- -- 44
2019-06-07 22:00:00 15.8 3 Este 13 Sur 0 -- -- 43
2019-06-07 21:00:00 17.8 6 Sur 19 Oeste 0 -- -- 34
2019-06-07 20:00:00 21.3 9 Noroeste 27 Noroeste 0 -- -- 24
2019-06-07 19:00:00 22.6 9 Sudoeste 28 Sur 0 -- -- 19
2019-06-07 18:00:00 23.9 19 Sur 35 Sur 0 -- -- 21
2019-06-07 17:00:00 24.9 10 Sur 33 Sudeste 0 -- -- 20
2019-06-07 16:00:00 24.5 9 Sudoeste 39 Sur 0 -- -- 27
2019-06-07 15:00:00 23.3 28 Sur 45 Sudoeste 0 -- -- 28
2019-06-07 14:00:00 22.3 13 Sur 32 Sur 0 -- -- 43
2019-06-07 13:00:00 19.6 12 Oeste 35 Sudeste 0 -- -- 52
2019-06-07 12:00:00 18.7 22 Sudoeste 39 Sur 0 -- -- 58
2019-06-07 11:00:00 21.3 27 Sur 37 Sudeste 0 -- -- 51
2019-06-07 10:00:00 17.6 12 Sur 21 Sudeste 0 -- -- 61
2019-06-07 09:00:00 18.2 3 Nordeste 10 Nordeste 0 -- -- 58
2019-06-07 08:00:00 13.4 7 Norte 11 Nordeste 0 -- -- 73
2019-06-07 07:00:00 13.3 5 Nordeste 17 Sur 0 -- -- 72
2019-06-07 06:00:00 13.4 10 Sudoeste 25 Sudeste 0 -- -- 72
2019-06-07 05:00:00 12.8 5 Sur 17 Sudeste 0 -- -- 72
2019-06-07 04:00:00 12.1 6 Sudeste 13 Sudeste 0 -- -- 73
2019-06-07 03:00:00 11.8 3 Norte 6 Oeste 0 -- -- 71
2019-06-07 02:00:00 12.4 4 Nordeste 15 Sur 0 -- -- 67
2019-06-07 01:00:00 14 8 Sur 20 Sudoeste 0 -- -- 64
2019-06-07 00:00:00 15.5 10 Sudoeste 35 Sur 0 -- -- 54
2019-06-06 23:00:00 16.2 27 Sur 47 Sur 0 -- -- 52
2019-06-06 22:00:00 16.7 28 Sur 49 Sur 0 -- -- 51
2019-06-06 21:00:00 17.7 24 Sudeste 40 Sudoeste 0 -- -- 50
2019-06-06 20:00:00 18.4 18 Sudoeste 42 Sudoeste 0 -- -- 44
2019-06-06 19:00:00 19.4 28 Sudoeste 49 Sudoeste 0 -- -- 45
2019-06-06 18:00:00 21.7 17 Sudoeste 41 Sudoeste 0 -- -- 40
2019-06-06 17:00:00 19.8 18 Sudoeste 33 Sudoeste 0 -- -- 45
2019-06-06 16:00:00 21.3 18 Sur 46 Sudeste 0 -- -- 41
2019-06-06 15:00:00 22.3 27 Sur 46 Sur 0 -- -- 33
2019-06-06 14:00:00 22 23 Sur 39 Sudeste 0 -- -- 39
2019-06-06 13:00:00 21 23 Sur 36 Sur 0 -- -- 42
2019-06-06 12:00:00 19.5 25 Sur 36 Sudeste 0 -- -- 46
2019-06-06 11:00:00 18.7 21 Sur 29 Sur 0 -- -- 51
2019-06-06 10:00:00 16.8 3 Nordeste 9 Nordeste 0 -- -- 52
2019-06-06 09:00:00 15.6 3 Nordeste 8 Nordeste 0 -- -- 56
2019-06-06 08:00:00 11 5 Norte 8 Norte 0 -- -- 71
2019-06-06 07:00:00 6.5 4 Norte 6 Norte 0 -- -- 91
2019-06-06 06:00:00 6.6 3 Norte 10 Norte 0 -- -- 90
2019-06-06 05:00:00 7.7 0 Calma 5 Norte 0 -- -- 84
2019-06-06 04:00:00 8.4 3 Nordeste 8 Sur 0 -- -- 84
2019-06-06 03:00:00 10.1 0 Calma 8 Este 0 -- -- 73
2019-06-06 02:00:00 9.9 3 Norte 7 Norte 0 -- -- 73
2019-06-06 01:00:00 12.5 0 Calma 6 Noroeste 0 -- -- 57
2019-06-06 00:00:00 12.9 3 Sudoeste 14 Norte 0 -- -- 59
2019-06-05 23:00:00 13.6 3 Nordeste 10 Norte 0 -- -- 60
2019-06-05 22:00:00 14.8 8 Norte 19 Norte 0 -- -- 55
2019-06-05 21:00:00 17.5 4 Norte 22 Sudoeste 0 -- -- 50
2019-06-05 20:00:00 19.4 11 Sudeste 26 Oeste 0 -- -- 43
2019-06-05 19:00:00 20.4 9 Sudeste 27 Sudeste 0 -- -- 45
2019-06-05 18:00:00 20.9 7 Sudeste 20 Este 0 -- -- 49
2019-06-05 17:00:00 19.6 12 Sur 32 Sur 0 -- -- 50
2019-06-05 16:00:00 18.4 10 Sudeste 22 Sur 0.2 -- -- 67
2019-06-05 15:00:00 15.1 13 Sur 36 Sur 0.2 -- -- 86
2019-06-05 14:00:00 15.6 24 Sudeste 36 Sudeste 1 -- -- 90
2019-06-05 13:00:00 14.8 16 Sudeste 34 Sur 2 -- -- 90
2019-06-05 12:00:00 19.9 15 Sur 47 Sudoeste 0 -- -- 51
2019-06-05 11:00:00 22.3 28 Sudoeste 54 Sudoeste 0 -- -- 36
2019-06-05 10:00:00 22 20 Sur 40 Sur 0 -- -- 31
2019-06-05 09:00:00 16.6 8 Norte 13 Norte 0 -- -- 54
2019-06-05 08:00:00 17.1 3 Norte 7 Norte 0 -- -- 56
2019-06-05 07:00:00 11.9 2 Nordeste 6 Norte 0 -- -- 63
2019-06-05 06:00:00 13.1 2 Sudeste 5 Norte 0 -- -- 61
2019-06-05 05:00:00 14.3 3 Nordeste 6 Norte 0 -- -- 58
2019-06-05 04:00:00 15.8 3 Nordeste 10 Norte 0 -- -- 51
2019-06-05 03:00:00 16.7 0 Calma 8 Sur 0 -- -- 45
2019-06-05 02:00:00 17.6 3 Norte 25 Sudeste 0 -- -- 43
2019-06-05 01:00:00 18.9 17 Sur 33 Sur 0 -- -- 40
2019-06-05 00:00:00 19.1 28 Sur 36 Sur 0 -- -- 39
2019-06-04 23:00:00 19.7 19 Sur 32 Sur 0 -- -- 39
2019-06-04 22:00:00 21.3 22 Sur 47 Sur 0 -- -- 34
2019-06-04 21:00:00 22.8 22 Sur 40 Sur 0 -- -- 35
2019-06-04 20:00:00 24.6 26 Sudeste 43 Sudeste 0 -- -- 36
2019-06-04 19:00:00 26.3 22 Sur 41 Sur 0 -- -- 35
2019-06-04 18:00:00 28.3 19 Sur 40 Sudoeste 0 -- -- 34
2019-06-04 17:00:00 29.6 16 Sur 39 Sur 0 -- -- 34
2019-06-04 16:00:00 29.4 15 Sudoeste 45 Sur 0 -- -- 34
2019-06-04 15:00:00 29.4 15 Sur 37 Sudoeste 0 -- -- 32
2019-06-04 14:00:00 27.9 21 Sudoeste 45 Sudoeste 0 -- -- 32
2019-06-04 13:00:00 27.1 22 Sudoeste 38 Sur 0 -- -- 32
2019-06-04 12:00:00 25.5 13 Sur 41 Sudeste 0 -- -- 35
2019-06-04 11:00:00 23.6 4 Sudeste 12 Sur 0 -- -- 40
2019-06-04 10:00:00 21.8 5 Nordeste 13 Nordeste 0 -- -- 49
2019-06-04 09:00:00 18 7 Nordeste 10 Norte 0 -- -- 60
2019-06-04 08:00:00 15.1 4 Norte 7 Norte 0 -- -- 71
2019-06-04 07:00:00 10.4 6 Norte 9 Norte 0 -- -- 88
2019-06-04 06:00:00 10.5 6 Norte 8 Norte 0 -- -- 86
2019-06-04 05:00:00 11 7 Norte 9 Nordeste 0 -- -- 85
2019-06-04 04:00:00 11.9 4 Norte 6 Norte 0 -- -- 78
2019-06-04 03:00:00 12.8 5 Norte 9 Norte 0 -- -- 72
2019-06-04 02:00:00 14.1 4 Norte 7 Norte 0 -- -- 68
2019-06-04 01:00:00 15.3 4 Nordeste 9 Nordeste 0 -- -- 61
2019-06-04 00:00:00 18.3 9 Sur 35 Sur 0 -- -- 50
2019-06-03 23:00:00 19.7 28 Sur 36 Sur 0 -- -- 44
2019-06-03 22:00:00 20.9 27 Sur 37 Sur 0 -- -- 42
2019-06-03 21:00:00 23.2 24 Sur 37 Sur 0 -- -- 37
2019-06-03 20:00:00 25 23 Sur 40 Sur 0 -- -- 35
2019-06-03 19:00:00 26.7 22 Sur 39 Sur 0 -- -- 32
2019-06-03 18:00:00 28.2 19 Sudoeste 33 Sur 0 -- -- 30
2019-06-03 17:00:00 30 16 Sur 37 Sur 0 -- -- 28
2019-06-03 16:00:00 29.7 21 Sur 40 Sudeste 0 -- -- 30
2019-06-03 15:00:00 29.1 26 Sur 39 Sur 0 -- -- 30
2019-06-03 14:00:00 29.1 21 Sur 35 Sur 0 -- -- 32
2019-06-03 13:00:00 28.2 23 Sur 36 Sur 0 -- -- 36
2019-06-03 12:00:00 26.5 10 Sudeste 15 Sudeste 0 -- -- 40
2019-06-03 11:00:00 23.7 4 Norte 12 Nordeste 0 -- -- 54
2019-06-03 10:00:00 21.2 5 Nordeste 15 Nordeste 0 -- -- 60
2019-06-03 09:00:00 16.2 9 Nordeste 29 Noroeste 0 -- -- 80
2019-06-03 08:00:00 14.9 13 Norte 17 Norte 0 -- -- 85
2019-06-03 07:00:00 13.7 10 Norte 18 Norte 0 -- -- 91
2019-06-03 06:00:00 13.1 5 Norte 9 Noroeste 0 -- -- 90
2019-06-03 05:00:00 14 8 Norte 13 Norte 0 -- -- 87
2019-06-03 04:00:00 14 4 Norte 9 Norte 0 -- -- 84
2019-06-03 03:00:00 15.7 6 Norte 10 Norte 0 -- -- 79
2019-06-03 02:00:00 15.9 5 Norte 8 Norte 0 -- -- 71
2019-06-03 01:00:00 17.1 4 Norte 7 Norte 0 -- -- 66
2019-06-03 00:00:00 18.9 0 Calma 9 Nordeste 0 -- -- 69
2019-06-02 23:00:00 19.8 9 Norte 24 Sudoeste 0 -- -- 58
2019-06-02 22:00:00 22.4 20 Sur 29 Sudeste 0 -- -- 44
2019-06-02 21:00:00 24.5 23 Sur 39 Sur 0 -- -- 39
2019-06-02 20:00:00 26.2 18 Sur 32 Sur 0 -- -- 36
2019-06-02 19:00:00 28.7 15 Sur 36 Sur 0 -- -- 32
2019-06-02 18:00:00 29.8 19 Sur 41 Sur 0 -- -- 32
2019-06-02 17:00:00 30.2 21 Sur 42 Sudeste 0 -- -- 31
2019-06-02 16:00:00 30.5 27 Sudeste 44 Sudeste 0 -- -- 32
2019-06-02 15:00:00 30.2 28 Sur 39 Sur 0 -- -- 34
2019-06-02 14:00:00 29.7 27 Sudeste 41 Sur 0 -- -- 35
2019-06-02 13:00:00 27.7 31 Sur 43 Sur 0 -- -- 42
2019-06-02 12:00:00 26.6 28 Sur 35 Sur 0 -- -- 44
2019-06-02 11:00:00 25.8 3 Este 11 Nordeste 0 -- -- 45
2019-06-02 10:00:00 23.5 5 Nordeste 10 Nordeste 0 -- -- 51
2019-06-02 09:00:00 21.2 4 Nordeste 9 Nordeste 0 -- -- 58
2019-06-02 08:00:00 17.5 3 Noroeste 9 Norte 0 -- -- 69
2019-06-02 07:00:00 11.1 5 Norte 9 Norte 0 -- -- 91
2019-06-02 06:00:00 11.3 6 Norte 8 Norte 0 -- -- 90
2019-06-02 05:00:00 11.7 5 Norte 9 Norte 0 -- -- 89
2019-06-02 04:00:00 12.3 6 Norte 8 Norte 0 -- -- 88
2019-06-02 03:00:00 13.3 6 Norte 8 Norte 0 -- -- 82
2019-06-02 02:00:00 14.9 4 Norte 5 Norte 0 -- -- 73
2019-06-02 01:00:00 17.3 5 Sur 11 Sur 0 -- -- 62
2019-06-02 00:00:00 18.3 5 Sur 27 Sur 0 -- -- 59
2019-06-01 23:00:00 20 21 Sur 30 Sur 0 -- -- 54
2019-06-01 22:00:00 21.6 18 Sur 36 Sudeste 0 -- -- 50
2019-06-01 21:00:00 23.1 20 Sur 38 Sur 0 -- -- 48
2019-06-01 20:00:00 25.5 23 Sur 35 Sur 0 -- -- 41
2019-06-01 19:00:00 27.6 18 Sur 28 Sudeste 0 -- -- 35
2019-06-01 18:00:00 28.6 19 Sur 32 Sur 0 -- -- 33
2019-06-01 17:00:00 28.8 22 Sudeste 39 Sur 0 -- -- 34
2019-06-01 16:00:00 29.2 22 Sudeste 33 Sur 0 -- -- 34
2019-06-01 15:00:00 29 24 Sur 35 Sur 0 -- -- 36
2019-06-01 14:00:00 28.1 24 Sur 34 Sur 0 -- -- 37
2019-06-01 13:00:00 27.3 23 Sur 32 Sur 0 -- -- 38
2019-06-01 12:00:00 26.1 19 Sur 25 Sur 0 -- -- 41
2019-06-01 11:00:00 23.8 4 Nordeste 10 Nordeste 0 -- -- 45
2019-06-01 10:00:00 20.6 7 Nordeste 12 Nordeste 0 -- -- 55
2019-06-01 09:00:00 17.7 6 Norte 10 Norte 0 -- -- 63
2019-06-01 08:00:00 14.6 5 Norte 8 Norte 0 -- -- 80
2019-06-01 07:00:00 9.9 7 Norte 9 Noroeste 0 -- -- 96
2019-06-01 06:00:00 10 6 Norte 9 Norte 0 -- -- 96
2019-06-01 05:00:00 10.6 5 Norte 9 Norte 0 -- -- 93
2019-06-01 04:00:00 11.4 5 Norte 9 Norte 0 -- -- 89
2019-06-01 03:00:00 11.9 6 Norte 9 Norte 0 -- -- 87
2019-06-01 02:00:00 13.5 3 Nordeste 5 Nordeste 0 -- -- 78
2019-06-01 01:00:00 14.8 4 Nordeste 22 Sur 0 -- -- 73
2019-06-01 00:00:00 17.7 15 Sur 30 Sur 0 -- -- 61
2019-05-31 23:00:00 18.3 17 Sur 24 Sur 0 -- -- 61
2019-05-31 22:00:00 20.1 20 Sur 32 Sudeste 0 -- -- 54
2019-05-31 21:00:00 21.7 24 Sur 37 Sudeste 0 -- -- 48
2019-05-31 20:00:00 23.9 18 Sur 30 Sur 0 -- -- 39
2019-05-31 19:00:00 25.4 18 Sur 29 Sudeste 0 -- -- 35
2019-05-31 18:00:00 26.5 17 Sur 36 Sudeste 0 -- -- 35
2019-05-31 17:00:00 26.9 25 Sur 35 Sur 0 -- -- 33
2019-05-31 16:00:00 27 24 Sur 39 Sur 0 -- -- 33
2019-05-31 15:00:00 26.5 26 Sur 36 Sur 0 -- -- 36
2019-05-31 14:00:00 25.4 28 Sur 37 Sur 0 -- -- 37
2019-05-31 13:00:00 24.7 25 Sur 36 Sur 0 -- -- 40
2019-05-31 12:00:00 23.6 22 Sur 31 Sur 0 -- -- 42
2019-05-31 11:00:00 21.2 5 Nordeste 12 Norte 0 -- -- 41
2019-05-31 10:00:00 18.5 8 Norte 12 Norte 0 -- -- 52
2019-05-31 09:00:00 17.2 5 Nordeste 8 Nordeste 0 -- -- 53
2019-05-31 08:00:00 13.1 4 Norte 13 Norte 0 -- -- 74
2019-05-31 07:00:00 8.1 5 Norte 7 Noroeste 0 -- -- 97
2019-05-31 06:00:00 8 6 Norte 8 Norte 0 -- -- 97
2019-05-31 05:00:00 8.7 6 Norte 8 Norte 0 -- -- 96
2019-05-31 04:00:00 9.4 6 Norte 7 Norte 0 -- -- 93
2019-05-31 03:00:00 11.3 0 Calma 8 Nordeste 0 -- -- 84
2019-05-31 02:00:00 12.1 6 Nordeste 12 Sudeste 0 -- -- 81
2019-05-31 01:00:00 14.4 7 Sudeste 29 Sur 0 -- -- 74
2019-05-31 00:00:00 16 15 Sudeste 35 Sur 0 -- -- 67
2019-05-30 23:00:00 17.8 26 Sur 35 Sur 0 -- -- 62
2019-05-30 22:00:00 18.2 10 Sur 25 Sur 0 -- -- 56
2019-05-30 21:00:00 20 20 Sur 31 Sur 0 -- -- 52
2019-05-30 20:00:00 21.5 25 Sur 35 Sudeste 0 -- -- 48
2019-05-30 19:00:00 23.1 25 Sur 36 Sudeste 0 -- -- 45
2019-05-30 18:00:00 23.9 26 Sur 39 Sur 0 -- -- 45
2019-05-30 17:00:00 24 30 Sur 40 Sur 0 -- -- 44
2019-05-30 16:00:00 23.8 33 Sur 46 Sur 0 -- -- 45
2019-05-30 15:00:00 23.3 33 Sur 45 Sur 0 -- -- 46
2019-05-30 14:00:00 22.6 36 Sur 48 Sur 0 -- -- 48
2019-05-30 13:00:00 21.2 39 Sur 51 Sur 0 -- -- 52
2019-05-30 12:00:00 19.7 37 Sur 43 Sur 0 -- -- 55
2019-05-30 11:00:00 18.6 20 Sur 26 Sur 0 -- -- 51
2019-05-30 10:00:00 18.4 5 Nordeste 11 Norte 0 -- -- 48
2019-05-30 09:00:00 15.2 7 Norte 12 Norte 0 -- -- 52
2019-05-30 08:00:00 12.3 4 Norte 7 Norte 0 -- -- 61
2019-05-30 07:00:00 6.4 6 Norte 10 Norte 0 -- -- 86
2019-05-30 06:00:00 7 4 Norte 10 Noroeste 0 -- -- 80
2019-05-30 05:00:00 6.8 4 Norte 9 Norte 0 -- -- 82
2019-05-30 04:00:00 7.8 4 Norte 9 Nordeste 0 -- -- 77
2019-05-30 03:00:00 8.7 7 Nordeste 10 Nordeste 0 -- -- 71
2019-05-30 02:00:00 9.5 5 Nordeste 10 Norte 0 -- -- 66
2019-05-30 01:00:00 10.7 4 Nordeste 9 Nordeste 0 -- -- 61
2019-05-30 00:00:00 13 5 Sur 13 Norte 0 -- -- 50
2019-05-29 23:00:00 13.9 9 Norte 33 Nordeste 0 -- -- 46
2019-05-29 22:00:00 15.6 18 Nordeste 38 Nordeste 0 -- -- 40
2019-05-29 21:00:00 16.6 28 Norte 49 Norte 0 -- -- 37
2019-05-29 20:00:00 18.3 20 Norte 42 Norte 0 -- -- 33
2019-05-29 19:00:00 20.4 21 Nordeste 44 Norte 0 -- -- 29
2019-05-29 18:00:00 21.7 27 Norte 44 Norte 0 -- -- 27
2019-05-29 17:00:00 22.4 23 Norte 40 Norte 0 -- -- 26
2019-05-29 16:00:00 23 26 Norte 38 Norte 0 -- -- 26
2019-05-29 15:00:00 23.5 13 Norte 29 Nordeste 0 -- -- 22
2019-05-29 14:00:00 23.4 6 Nordeste 14 Nordeste 0 -- -- 24
2019-05-29 13:00:00 22.2 4 Este 18 Nordeste 0 -- -- 29
2019-05-29 12:00:00 20 9 Nordeste 21 Nordeste 0 -- -- 34
2019-05-29 11:00:00 18.7 15 Nordeste 27 Nordeste 0 -- -- 34
2019-05-29 10:00:00 17.8 18 Norte 32 Nordeste 0 -- -- 34
2019-05-29 09:00:00 17.1 17 Nordeste 31 Norte 0 -- -- 37
2019-05-29 08:00:00 14.6 20 Norte 27 Norte 0 -- -- 45
2019-05-29 07:00:00 10.1 12 Norte 22 Norte 0 -- -- 55
2019-05-29 06:00:00 10.9 13 Norte 36 Norte 0 -- -- 50
2019-05-29 05:00:00 12.3 19 Nordeste 32 Nordeste 0 -- -- 46
2019-05-29 04:00:00 12.5 14 Nordeste 35 Nordeste 0 -- -- 46
2019-05-29 03:00:00 13 20 Nordeste 40 Nordeste 0 -- -- 45
2019-05-29 02:00:00 13.1 23 Nordeste 44 Nordeste 0 -- -- 45
2019-05-29 01:00:00 13.1 15 Norte 36 Nordeste 0 -- -- 44
2019-05-29 00:00:00 13.8 19 Norte 37 Nordeste 0 -- -- 41
2019-05-28 23:00:00 14.5 16 Norte 40 Nordeste 0 -- -- 36
2019-05-28 22:00:00 15.4 17 Nordeste 34 Nordeste 0 -- -- 36
2019-05-28 21:00:00 16.8 10 Nordeste 25 Nordeste 0 -- -- 37
2019-05-28 20:00:00 18.7 5 Nordeste 18 Sudeste 0 -- -- 35
2019-05-28 19:00:00 19 11 Sudeste 26 Sur 0 -- -- 50
2019-05-28 18:00:00 18.9 12 Sudeste 28 Sudeste 0 -- -- 52
2019-05-28 17:00:00 19.5 20 Sudeste 28 Sudeste 0 -- -- 53
2019-05-28 16:00:00 18 20 Sudeste 46 Sur 0 -- -- 64
2019-05-28 15:00:00 18.6 30 Sudeste 52 Sur 0 -- -- 61
2019-05-28 14:00:00 20 37 Sur 52 Sur 0 -- -- 57
2019-05-28 13:00:00 18.3 44 Sur 58 Sur 0 -- -- 62
2019-05-28 12:00:00 16.4 50 Sur 57 Sur 0 -- -- 68
2019-05-28 11:00:00 15.1 42 Sur 51 Sur 0 -- -- 71
2019-05-28 10:00:00 14.3 27 Sur 38 Sudeste 0 -- -- 70
2019-05-28 09:00:00 13.3 12 Sur 18 Sur 0 -- -- 73
2019-05-28 08:00:00 12 7 Sur 13 Sudeste 0 -- -- 80
2019-05-28 07:00:00 9.6 0 Calma 12 Sur 0 -- -- 91
2019-05-28 06:00:00 10.6 7 Sur 21 Sur 0 -- -- 89
2019-05-28 05:00:00 11.2 11 Sudeste 27 Sudeste 0 -- -- 88
2019-05-28 04:00:00 11.8 16 Sudeste 25 Sur 0 -- -- 89
2019-05-28 03:00:00 11.8 6 Nordeste 21 Sur 0 -- -- 81
2019-05-28 02:00:00 13.9 15 Sur 35 Sur 0 -- -- 82
2019-05-28 01:00:00 15 26 Sur 40 Sur 0 -- -- 80
2019-05-28 00:00:00 13.9 0 Calma 9 Nordeste 0 -- -- 77
2019-05-27 23:00:00 14 4 Nordeste 9 Nordeste 0 -- -- 83
2019-05-27 22:00:00 15.2 2 Este 22 Sur 0 -- -- 82
2019-05-27 21:00:00 17.3 22 Sur 36 Sur 0 -- -- 71
2019-05-27 20:00:00 17.7 29 Sur 37 Sur 0 -- -- 75
2019-05-27 19:00:00 18.4 18 Sur 27 Sur 0 -- -- 72
2019-05-27 18:00:00 18.6 16 Sur 42 Sur 0 -- -- 73
2019-05-27 17:00:00 20.4 30 Sur 46 Sur 0 -- -- 57
2019-05-27 16:00:00 20.9 39 Sur 55 Sur 0 -- -- 58
2019-05-27 15:00:00 20.4 37 Sur 50 Sur 0 -- -- 61
2019-05-27 14:00:00 20.3 42 Sur 58 Sur 0 -- -- 60
2019-05-27 13:00:00 18.9 49 Sur 57 Sur 0 -- -- 62
2019-05-27 12:00:00 17.6 46 Sur 56 Sur 0 -- -- 65
2019-05-27 11:00:00 17 26 Sur 34 Sur 0 -- -- 65
2019-05-27 10:00:00 15 15 Sur 21 Sur 0 -- -- 68
2019-05-27 09:00:00 16.3 4 Norte 7 Norte 0 -- -- 54
2019-05-27 08:00:00 13.9 3 Norte 8 Norte 0 -- -- 61
2019-05-27 07:00:00 7.9 4 Norte 15 Norte 0 -- -- 81
2019-05-27 06:00:00 7.4 5 Norte 8 Norte 0 -- -- 84
2019-05-27 05:00:00 9.3 3 Noroeste 5 Nordeste 0 -- -- 72
2019-05-27 04:00:00 9.1 4 Norte 8 Noroeste 0 -- -- 74
2019-05-27 03:00:00 10.3 3 Nordeste 13 Norte 0 -- -- 66
2019-05-27 02:00:00 11.7 5 Nordeste 16 Norte 0 -- -- 60
2019-05-27 01:00:00 12.5 9 Norte 19 Norte 0 -- -- 58
2019-05-27 00:00:00 12.9 12 Norte 22 Norte 0 -- -- 55
2019-05-26 23:00:00 13.6 13 Norte 23 Norte 0 -- -- 52
2019-05-26 22:00:00 14.8 11 Norte 27 Nordeste 0 -- -- 46
2019-05-26 21:00:00 17 14 Norte 41 Nordeste 0 -- -- 40
2019-05-26 20:00:00 18.8 28 Norte 43 Norte 0 -- -- 37
2019-05-26 19:00:00 20.3 28 Norte 47 Nordeste 0 -- -- 36
2019-05-26 18:00:00 21.4 23 Norte 45 Nordeste 0 -- -- 38
2019-05-26 17:00:00 20.6 27 Norte 48 Norte 0 -- -- 38
2019-05-26 16:00:00 23 24 Nordeste 44 Nordeste 0 -- -- 36
2019-05-26 15:00:00 24.2 23 Norte 36 Nordeste 0 -- -- 33
2019-05-26 14:00:00 23.7 17 Nordeste 34 Norte 0 -- -- 34
2019-05-26 13:00:00 23.1 23 Norte 47 Nordeste 0 -- -- 39
2019-05-26 12:00:00 21.8 26 Nordeste 40 Norte 0 -- -- 37
2019-05-26 11:00:00 20.8 18 Nordeste 28 Nordeste 0 -- -- 42
2019-05-26 10:00:00 19.2 18 Norte 28 Norte 0 -- -- 48
2019-05-26 09:00:00 16.8 14 Nordeste 21 Nordeste 0 -- -- 54
2019-05-26 08:00:00 15 6 Nordeste 11 Nordeste 0 -- -- 58
2019-05-26 07:00:00 8.2 7 Norte 12 Norte 0 -- -- 85
2019-05-26 06:00:00 9 6 Norte 12 Norte 0 -- -- 79
2019-05-26 05:00:00 11.1 9 Norte 15 Norte 0 -- -- 67
2019-05-26 04:00:00 10.5 8 Norte 15 Nordeste 0 -- -- 70
2019-05-26 03:00:00 11.6 10 Norte 29 Norte 0 -- -- 67
2019-05-26 02:00:00 14.2 18 Norte 29 Norte 0 -- -- 52
2019-05-26 01:00:00 14.2 13 Norte 29 Norte 0 -- -- 52
2019-05-26 00:00:00 14.8 14 Norte 37 Norte 0 -- -- 51
2019-05-25 23:00:00 15.8 26 Norte 45 Norte 0 -- -- 49
2019-05-25 22:00:00 15.9 25 Norte 45 Nordeste 0 -- -- 49
2019-05-25 21:00:00 17.3 28 Nordeste 48 Norte 0 -- -- 46
2019-05-25 20:00:00 19.1 21 Norte 41 Norte 0 -- -- 44
2019-05-25 19:00:00 20.8 20 Nordeste 37 Norte 0 -- -- 43
2019-05-25 18:00:00 21.9 22 Norte 35 Norte 0 -- -- 42
2019-05-25 17:00:00 19.5 25 Nordeste 39 Norte 0 -- -- 48
2019-05-25 16:00:00 20.6 14 Sur 41 Sudeste 0 -- -- 58
2019-05-25 15:00:00 16.8 36 Sur 52 Sur 0 -- -- 79
2019-05-25 14:00:00 17.9 44 Sur 55 Sur 0 -- -- 76
2019-05-25 13:00:00 15.7 42 Sur 51 Sur 0.2 -- -- 82
2019-05-25 12:00:00 16.1 39 Sur 48 Sur 0 -- -- 80
2019-05-25 11:00:00 18.7 15 Sur 22 Sur 0 -- -- 64
2019-05-25 10:00:00 19.4 4 Norte 9 Nordeste 0 -- -- 58
2019-05-25 09:00:00 15.2 3 Nordeste 6 Nordeste 0 -- -- 79
2019-05-25 08:00:00 10.9 3 Norte 5 Norte 0 -- -- 99
2019-05-25 07:00:00 10 3 Norte 6 Nordeste 0 -- -- 100
2019-05-25 06:00:00 10 5 Norte 6 Norte 0 -- -- 100
2019-05-25 05:00:00 10.3 3 Norte 8 Norte 0 -- -- 100
2019-05-25 04:00:00 10.7 4 Norte 6 Norte 0 -- -- 99
2019-05-25 03:00:00 10.9 5 Nordeste 7 Nordeste 0 -- -- 99
2019-05-25 02:00:00 11.4 3 Norte 4 Nordeste 0 -- -- 98
2019-05-25 01:00:00 11.8 2 Nordeste 10 Sur 0 -- -- 98
2019-05-25 00:00:00 12 7 Sur 16 Sur 0 -- -- 97
2019-05-24 23:00:00 12.4 10 Sur 16 Sur 0 -- -- 96
2019-05-24 22:00:00 12.6 13 Sur 23 Sur 0 -- -- 95
2019-05-24 21:00:00 13 19 Sur 27 Sur 0 -- -- 92
2019-05-24 20:00:00 13.5 17 Sur 24 Sur 0 -- -- 88
2019-05-24 19:00:00 14.5 9 Sur 14 Sur 0 -- -- 86
2019-05-24 18:00:00 16.9 0 Calma 6 Nordeste 0 -- -- 75
2019-05-24 17:00:00 16 3 Sur 11 Nordeste 0 -- -- 78
2019-05-24 16:00:00 14.7 2 Sudeste 10 Sur 0.2 -- -- 82
2019-05-24 15:00:00 13.3 9 Sur 14 Sur 0 -- -- 91
2019-05-24 14:00:00 12.9 2 Noroeste 9 Noroeste 0.2 -- -- 90
2019-05-24 13:00:00 12.8 5 Norte 7 Norte 0 -- -- 94
2019-05-24 12:00:00 13 4 Nordeste 9 Norte 1 -- -- 96
2019-05-24 11:00:00 12.2 5 Norte 15 Nordeste 0.8 -- -- 97
2019-05-24 10:00:00 11.8 8 Norte 11 Norte 3.6 -- -- 98
2019-05-24 09:00:00 12 0 Calma 12 Nordeste 3.6 -- -- 97
2019-05-24 08:00:00 12.1 4 Norte 12 Norte 1.2 -- -- 97
2019-05-24 07:00:00 12.1 0 Calma 15 Noroeste 0.4 -- -- 97
2019-05-24 06:00:00 12.1 6 Nordeste 17 Norte 1.2 -- -- 98
2019-05-24 05:00:00 12.3 13 Norte 19 Norte 2.4 -- -- 96
2019-05-24 04:00:00 14.1 4 Noroeste 10 Norte 0.4 -- -- 82
2019-05-24 03:00:00 15.2 5 Norte 24 Nordeste 0 -- -- 71
2019-05-24 02:00:00 15.1 12 Norte 39 Nordeste 0 -- -- 71
2019-05-24 01:00:00 15.8 22 Norte 43 Norte 0 -- -- 69
2019-05-24 00:00:00 17.2 24 Norte 36 Norte 0 -- -- 61
2019-05-23 23:00:00 18.9 12 Norte 25 Sudeste 0 -- -- 52
2019-05-23 22:00:00 19.5 18 Sur 32 Sur 0 -- -- 58
2019-05-23 21:00:00 21 19 Sur 32 Sur 0 -- -- 50
2019-05-23 20:00:00 22.3 14 Sudeste 21 Sur 0 -- -- 40
2019-05-23 19:00:00 23.4 16 Sur 26 Sur 0 -- -- 38
2019-05-23 18:00:00 24 15 Sur 33 Sudeste 0 -- -- 36
2019-05-23 17:00:00 25.7 22 Sur 33 Sur 0 -- -- 32
2019-05-23 16:00:00 26.7 22 Sur 35 Sudeste 0 -- -- 31
2019-05-23 15:00:00 26.3 24 Sur 32 Sur 0 -- -- 30
2019-05-23 14:00:00 26.5 21 Sur 30 Sudeste 0 -- -- 31
2019-05-23 13:00:00 24.9 24 Sur 31 Sur 0 -- -- 34
2019-05-23 12:00:00 23.6 14 Sur 23 Sur 0 -- -- 34
2019-05-23 11:00:00 19.8 5 Norte 10 Norte 0 -- -- 43
2019-05-23 10:00:00 17.3 6 Norte 12 Norte 0 -- -- 50
2019-05-23 09:00:00 13.9 6 Norte 10 Nordeste 0 -- -- 57
2019-05-23 08:00:00 10.6 4 Norte 7 Noroeste 0 -- -- 71
2019-05-23 07:00:00 6.7 5 Norte 8 Norte 0 -- -- 80
2019-05-23 06:00:00 5.9 4 Nordeste 8 Norte 0 -- -- 85
2019-05-23 05:00:00 6.5 5 Norte 9 Norte 0 -- -- 82
2019-05-23 04:00:00 6.5 8 Norte 10 Norte 0 -- -- 84
2019-05-23 03:00:00 8 5 Norte 8 Norte 0 -- -- 74
2019-05-23 02:00:00 8.5 6 Norte 7 Norte 0 -- -- 72
2019-05-23 01:00:00 10.5 2 Norte 6 Nordeste 0 -- -- 63
2019-05-23 00:00:00 11.6 3 Norte 11 Norte 0 -- -- 51
2019-05-22 23:00:00 13.5 0 Calma 6 Nordeste 0 -- -- 45
2019-05-22 22:00:00 15.8 5 Sur 14 Sur 0 -- -- 38
2019-05-22 21:00:00 17.5 12 Sur 23 Sur 0 -- -- 34
2019-05-22 20:00:00 20 17 Sur 27 Sudeste 0 -- -- 28
2019-05-22 19:00:00 22 19 Sudeste 30 Sudeste 0 -- -- 25
2019-05-22 18:00:00 23.1 21 Sur 32 Sur 0 -- -- 27
2019-05-22 17:00:00 23.3 24 Sur 39 Sur 0 -- -- 29
2019-05-22 16:00:00 23.7 25 Sur 37 Sur 0 -- -- 33
2019-05-22 15:00:00 23.3 26 Sur 37 Sur 0 -- -- 38
2019-05-22 14:00:00 23.2 23 Sur 32 Sur 0 -- -- 39
2019-05-22 13:00:00 22.4 21 Sudeste 28 Sur 0 -- -- 39
2019-05-22 12:00:00 21.7 17 Sur 24 Sur 0 -- -- 45
2019-05-22 11:00:00 19.1 4 Nordeste 9 Nordeste 0 -- -- 47
2019-05-22 10:00:00 17.1 5 Nordeste 10 Nordeste 0 -- -- 57
2019-05-22 09:00:00 15 5 Nordeste 10 Nordeste 0 -- -- 63
2019-05-22 08:00:00 11.6 4 Norte 8 Norte 0 -- -- 78
2019-05-22 07:00:00 7 4 Norte 8 Nordeste 0 -- -- 96
2019-05-22 06:00:00 7.2 3 Norte 6 Nordeste 0 -- -- 96
2019-05-22 05:00:00 8.5 3 Norte 9 Nordeste 0 -- -- 90
2019-05-22 04:00:00 8.4 5 Nordeste 8 Nordeste 0 -- -- 92
2019-05-22 03:00:00 8.7 4 Norte 10 Norte 0 -- -- 89
2019-05-22 02:00:00 9.3 6 Norte 8 Norte 0 -- -- 88
2019-05-22 01:00:00 10.4 3 Nordeste 6 Nordeste 0 -- -- 82
2019-05-22 00:00:00 12.6 2 Sudeste 8 Nordeste 0 -- -- 72